sensor_id;sensor_type;location;lat;lon;timestamp;temperature;humidity
15359;DHT22;7779;49.596;11.070;2022-12-18T00:01:21;-11.50;60.70
15359;DHT22;7779;49.596;11.070;2022-12-18T00:03:48;-11.50;60.70
15359;DHT22;7779;49.596;11.070;2022-12-18T00:06:15;-11.50;60.80
15359;DHT22;7779;49.596;11.070;2022-12-18T00:08:45;-11.60;60.70
15359;DHT22;7779;49.596;11.070;2022-12-18T00:11:14;-11.50;60.90
15359;DHT22;7779;49.596;11.070;2022-12-18T00:13:41;-11.50;60.90
15359;DHT22;7779;49.596;11.070;2022-12-18T00:16:10;-11.50;60.90
15359;DHT22;7779;49.596;11.070;2022-12-18T00:18:37;-11.50;61.00
15359;DHT22;7779;49.596;11.070;2022-12-18T00:21:06;-11.60;61.50
15359;DHT22;7779;49.596;11.070;2022-12-18T00:23:34;-11.60;60.80
15359;DHT22;7779;49.596;11.070;2022-12-18T00:26:03;-11.60;60.70
15359;DHT22;7779;49.596;11.070;2022-12-18T00:28:30;-11.60;60.70
15359;DHT22;7779;49.596;11.070;2022-12-18T00:31:04;-11.60;60.70
15359;DHT22;7779;49.596;11.070;2022-12-18T00:33:32;-11.60;60.70
15359;DHT22;7779;49.596;11.070;2022-12-18T00:36:13;-11.60;60.60
15359;DHT22;7779;49.596;11.070;2022-12-18T00:38:46;-11.70;60.50
15359;DHT22;7779;49.596;11.070;2022-12-18T00:41:14;-11.70;60.50
15359;DHT22;7779;49.596;11.070;2022-12-18T00:44:01;-11.70;61.10
15359;DHT22;7779;49.596;11.070;2022-12-18T00:46:27;-11.70;60.50
15359;DHT22;7779;49.596;11.070;2022-12-18T00:48:53;-11.80;60.40
15359;DHT22;7779;49.596;11.070;2022-12-18T00:51:18;-11.80;60.40
15359;DHT22;7779;49.596;11.070;2022-12-18T00:53:44;-11.80;60.40
15359;DHT22;7779;49.596;11.070;2022-12-18T00:56:10;-11.80;60.40
15359;DHT22;7779;49.596;11.070;2022-12-18T00:58:35;-11.90;59.80
15359;DHT22;7779;49.596;11.070;2022-12-18T01:01:04;-11.90;60.40
15359;DHT22;7779;49.596;11.070;2022-12-18T01:03:33;-11.90;60.40
15359;DHT22;7779;49.596;11.070;2022-12-18T01:06:04;-11.90;60.50
15359;DHT22;7779;49.596;11.070;2022-12-18T01:08:34;-11.90;59.90
15359;DHT22;7779;49.596;11.070;2022-12-18T01:11:06;-11.90;60.50
15359;DHT22;7779;49.596;11.070;2022-12-18T01:13:36;-12.00;60.40
15359;DHT22;7779;49.596;11.070;2022-12-18T01:16:02;-12.00;60.40
15359;DHT22;7779;49.596;11.070;2022-12-18T01:18:27;-12.00;60.50
15359;DHT22;7779;49.596;11.070;2022-12-18T01:20:53;-12.00;60.50
15359;DHT22;7779;49.596;11.070;2022-12-18T01:23:19;-12.00;60.50
15359;DHT22;7779;49.596;11.070;2022-12-18T01:25:44;-12.00;60.40
15359;DHT22;7779;49.596;11.070;2022-12-18T01:28:10;-12.00;60.40
15359;DHT22;7779;49.596;11.070;2022-12-18T01:30:36;-12.00;60.30
15359;DHT22;7779;49.596;11.070;2022-12-18T01:33:04;-12.10;60.20
15359;DHT22;7779;49.596;11.070;2022-12-18T01:35:30;-12.10;60.20
15359;DHT22;7779;49.596;11.070;2022-12-18T01:37:56;-12.10;60.20
15359;DHT22;7779;49.596;11.070;2022-12-18T01:40:23;-12.10;60.30
15359;DHT22;7779;49.596;11.070;2022-12-18T01:42:54;-12.10;60.30
15359;DHT22;7779;49.596;11.070;2022-12-18T01:45:24;-12.10;60.40
15359;DHT22;7779;49.596;11.070;2022-12-18T01:47:55;-12.10;60.50
15359;DHT22;7779;49.596;11.070;2022-12-18T01:50:37;-12.10;60.50
15359;DHT22;7779;49.596;11.070;2022-12-18T01:53:15;-12.10;60.60
15359;DHT22;7779;49.596;11.070;2022-12-18T01:55:53;-12.10;60.60
15359;DHT22;7779;49.596;11.070;2022-12-18T01:58:39;-12.10;60.70
15359;DHT22;7779;49.596;11.070;2022-12-18T02:01:20;-12.10;60.80
15359;DHT22;7779;49.596;11.070;2022-12-18T02:03:48;-12.00;60.90
15359;DHT22;7779;49.596;11.070;2022-12-18T02:06:33;-12.00;60.90
15359;DHT22;7779;49.596;11.070;2022-12-18T02:09:13;-12.00;60.90
15359;DHT22;7779;49.596;11.070;2022-12-18T02:12:05;-12.00;60.90
15359;DHT22;7779;49.596;11.070;2022-12-18T02:17:40;-12.00;60.90
15359;DHT22;7779;49.596;11.070;2022-12-18T02:20:49;-12.00;60.80
15359;DHT22;7779;49.596;11.070;2022-12-18T02:26:58;-12.00;60.60
15359;DHT22;7779;49.596;11.070;2022-12-18T02:29:35;-12.00;60.50
15359;DHT22;7779;49.596;11.070;2022-12-18T02:32:16;-12.00;60.40
15359;DHT22;7779;49.596;11.070;2022-12-18T02:34:46;-12.10;60.10
15359;DHT22;7779;49.596;11.070;2022-12-18T02:37:17;-12.10;60.10
15359;DHT22;7779;49.596;11.070;2022-12-18T02:39:49;-12.10;60.00
15359;DHT22;7779;49.596;11.070;2022-12-18T02:42:19;-12.20;59.90
15359;DHT22;7779;49.596;11.070;2022-12-18T02:44:50;-12.20;59.90
15359;DHT22;7779;49.596;11.070;2022-12-18T02:47:23;-12.30;59.90
15359;DHT22;7779;49.596;11.070;2022-12-18T02:50:26;-12.30;60.00
15359;DHT22;7779;49.596;11.070;2022-12-18T02:53:24;-12.30;60.00
15359;DHT22;7779;49.596;11.070;2022-12-18T02:56:15;-12.30;60.00
15359;DHT22;7779;49.596;11.070;2022-12-18T02:59:06;-12.40;59.90
15359;DHT22;7779;49.596;11.070;2022-12-18T03:06:50;-12.40;60.00
15359;DHT22;7779;49.596;11.070;2022-12-18T03:09:31;-12.40;60.10
15359;DHT22;7779;49.596;11.070;2022-12-18T03:12:29;-12.40;60.10
15359;DHT22;7779;49.596;11.070;2022-12-18T03:17:36;-12.40;60.00
15359;DHT22;7779;49.596;11.070;2022-12-18T03:20:12;-12.50;60.00
15359;DHT22;7779;49.596;11.070;2022-12-18T03:22:42;-12.50;60.00
15359;DHT22;7779;49.596;11.070;2022-12-18T03:25:14;-12.50;60.00
15359;DHT22;7779;49.596;11.070;2022-12-18T03:27:48;-12.50;60.00
15359;DHT22;7779;49.596;11.070;2022-12-18T03:30:19;-12.50;60.00
15359;DHT22;7779;49.596;11.070;2022-12-18T03:33:02;-12.50;59.90
15359;DHT22;7779;49.596;11.070;2022-12-18T03:35:49;-12.60;59.80
15359;DHT22;7779;49.596;11.070;2022-12-18T03:38:17;-12.60;59.80
15359;DHT22;7779;49.596;11.070;2022-12-18T03:41:01;-12.60;59.80
15359;DHT22;7779;49.596;11.070;2022-12-18T03:43:44;-12.60;59.80
15359;DHT22;7779;49.596;11.070;2022-12-18T03:46:28;-12.70;59.60
15359;DHT22;7779;49.596;11.070;2022-12-18T03:49:10;-12.70;59.60
15359;DHT22;7779;49.596;11.070;2022-12-18T03:52:04;-12.70;59.60
15359;DHT22;7779;49.596;11.070;2022-12-18T03:54:39;-12.80;59.50
15359;DHT22;7779;49.596;11.070;2022-12-18T03:57:16;-12.80;59.60
15359;DHT22;7779;49.596;11.070;2022-12-18T03:59:49;-12.80;59.60
15359;DHT22;7779;49.596;11.070;2022-12-18T04:02:24;-12.80;59.60
15359;DHT22;7779;49.596;11.070;2022-12-18T04:04:56;-12.80;59.60
15359;DHT22;7779;49.596;11.070;2022-12-18T04:07:24;-12.90;59.60
15359;DHT22;7779;49.596;11.070;2022-12-18T04:09:55;-12.90;59.60
15359;DHT22;7779;49.596;11.070;2022-12-18T04:12:28;-12.90;59.60
15359;DHT22;7779;49.596;11.070;2022-12-18T04:14:55;-12.90;59.60
15359;DHT22;7779;49.596;11.070;2022-12-18T04:17:22;-12.90;59.70
15359;DHT22;7779;49.596;11.070;2022-12-18T04:19:48;-12.90;59.80
15359;DHT22;7779;49.596;11.070;2022-12-18T04:22:15;-12.90;59.80
15359;DHT22;7779;49.596;11.070;2022-12-18T04:24:45;-12.90;59.80
15359;DHT22;7779;49.596;11.070;2022-12-18T04:27:19;-12.90;60.50
15359;DHT22;7779;49.596;11.070;2022-12-18T04:29:48;-12.90;59.80
15359;DHT22;7779;49.596;11.070;2022-12-18T04:32:17;-12.90;59.80
15359;DHT22;7779;49.596;11.070;2022-12-18T04:34:44;-12.90;59.80
15359;DHT22;7779;49.596;11.070;2022-12-18T04:37:09;-13.00;59.70
15359;DHT22;7779;49.596;11.070;2022-12-18T04:39:36;-12.90;59.80
15359;DHT22;7779;49.596;11.070;2022-12-18T04:42:08;-12.90;59.80
15359;DHT22;7779;49.596;11.070;2022-12-18T04:44:34;-12.90;59.80
15359;DHT22;7779;49.596;11.070;2022-12-18T04:46:59;-13.00;59.70
15359;DHT22;7779;49.596;11.070;2022-12-18T04:49:25;-13.00;59.70
15359;DHT22;7779;49.596;11.070;2022-12-18T04:51:51;-13.00;59.80
15359;DHT22;7779;49.596;11.070;2022-12-18T04:54:17;-13.00;59.90
15359;DHT22;7779;49.596;11.070;2022-12-18T04:56:42;-13.00;60.00
15359;DHT22;7779;49.596;11.070;2022-12-18T04:59:08;-12.90;60.30
15359;DHT22;7779;49.596;11.070;2022-12-18T05:01:34;-12.90;60.50
15359;DHT22;7779;49.596;11.070;2022-12-18T05:04:00;-12.90;60.70
15359;DHT22;7779;49.596;11.070;2022-12-18T05:06:26;-12.80;60.90
15359;DHT22;7779;49.596;11.070;2022-12-18T05:08:52;-12.80;61.00
15359;DHT22;7779;49.596;11.070;2022-12-18T05:11:18;-12.70;61.20
15359;DHT22;7779;49.596;11.070;2022-12-18T05:13:44;-12.60;61.40
15359;DHT22;7779;49.596;11.070;2022-12-18T05:16:12;-12.50;61.60
15359;DHT22;7779;49.596;11.070;2022-12-18T05:18:38;-12.50;61.70
15359;DHT22;7779;49.596;11.070;2022-12-18T05:21:04;-12.40;61.80
15359;DHT22;7779;49.596;11.070;2022-12-18T05:23:30;-12.30;62.00
15359;DHT22;7779;49.596;11.070;2022-12-18T05:26:03;-12.20;62.20
15359;DHT22;7779;49.596;11.070;2022-12-18T05:28:31;-12.10;62.40
15359;DHT22;7779;49.596;11.070;2022-12-18T05:31:00;-11.90;62.80
15359;DHT22;7779;49.596;11.070;2022-12-18T05:33:30;-11.80;63.00
15359;DHT22;7779;49.596;11.070;2022-12-18T05:36:05;-11.70;63.20
15359;DHT22;7779;49.596;11.070;2022-12-18T05:38:34;-11.50;62.70
15359;DHT22;7779;49.596;11.070;2022-12-18T05:41:01;-11.40;63.60
15359;DHT22;7779;49.596;11.070;2022-12-18T05:43:27;-11.30;63.60
15359;DHT22;7779;49.596;11.070;2022-12-18T05:45:54;-11.20;63.70
15359;DHT22;7779;49.596;11.070;2022-12-18T05:48:21;-11.00;63.80
15359;DHT22;7779;49.596;11.070;2022-12-18T05:50:49;-10.90;63.80
15359;DHT22;7779;49.596;11.070;2022-12-18T05:53:17;-10.80;63.80
15359;DHT22;7779;49.596;11.070;2022-12-18T05:55:45;-10.70;63.80
15359;DHT22;7779;49.596;11.070;2022-12-18T05:58:12;-10.60;63.80
15359;DHT22;7779;49.596;11.070;2022-12-18T06:00:40;-10.50;63.90
15359;DHT22;7779;49.596;11.070;2022-12-18T06:03:09;-10.40;63.90
15359;DHT22;7779;49.596;11.070;2022-12-18T06:05:41;-10.30;64.00
15359;DHT22;7779;49.596;11.070;2022-12-18T06:08:09;-10.10;63.50
15359;DHT22;7779;49.596;11.070;2022-12-18T06:10:36;-10.10;64.10
15359;DHT22;7779;49.596;11.070;2022-12-18T06:13:04;-10.00;64.10
15359;DHT22;7779;49.596;11.070;2022-12-18T06:15:31;-9.90;64.10
15359;DHT22;7779;49.596;11.070;2022-12-18T06:17:57;-9.80;64.20
15359;DHT22;7779;49.596;11.070;2022-12-18T06:20:23;-9.70;64.30
15359;DHT22;7779;49.596;11.070;2022-12-18T06:22:49;-9.60;64.40
15359;DHT22;7779;49.596;11.070;2022-12-18T06:25:14;-9.60;64.30
15359;DHT22;7779;49.596;11.070;2022-12-18T06:27:40;-9.50;64.30
15359;DHT22;7779;49.596;11.070;2022-12-18T06:30:07;-9.40;64.30
15359;DHT22;7779;49.596;11.070;2022-12-18T06:32:33;-9.30;64.30
15359;DHT22;7779;49.596;11.070;2022-12-18T06:34:59;-9.20;64.30
15359;DHT22;7779;49.596;11.070;2022-12-18T06:37:24;-9.10;63.70
15359;DHT22;7779;49.596;11.070;2022-12-18T06:39:52;-9.10;64.20
15359;DHT22;7779;49.596;11.070;2022-12-18T06:42:18;-9.10;64.10
15359;DHT22;7779;49.596;11.070;2022-12-18T06:44:44;-9.00;64.10
15359;DHT22;7779;49.596;11.070;2022-12-18T06:47:10;-8.90;63.60
15359;DHT22;7779;49.596;11.070;2022-12-18T06:49:36;-8.90;64.10
15359;DHT22;7779;49.596;11.070;2022-12-18T06:52:01;-8.80;64.20
15359;DHT22;7779;49.596;11.070;2022-12-18T06:54:27;-8.80;64.20
15359;DHT22;7779;49.596;11.070;2022-12-18T06:56:53;-8.70;63.80
15359;DHT22;7779;49.596;11.070;2022-12-18T06:59:19;-8.70;64.40
15359;DHT22;7779;49.596;11.070;2022-12-18T07:01:44;-8.60;64.50
15359;DHT22;7779;49.596;11.070;2022-12-18T07:04:10;-8.50;64.70
15359;DHT22;7779;49.596;11.070;2022-12-18T07:06:36;-8.50;64.80
15359;DHT22;7779;49.596;11.070;2022-12-18T07:09:01;-8.40;64.40
15359;DHT22;7779;49.596;11.070;2022-12-18T07:11:27;-8.30;65.10
15359;DHT22;7779;49.596;11.070;2022-12-18T07:13:53;-8.20;65.30
15359;DHT22;7779;49.596;11.070;2022-12-18T07:16:20;-8.10;65.50
15359;DHT22;7779;49.596;11.070;2022-12-18T07:18:47;-8.00;65.20
15359;DHT22;7779;49.596;11.070;2022-12-18T07:21:15;-7.90;65.90
15359;DHT22;7779;49.596;11.070;2022-12-18T07:23:43;-7.80;66.00
15359;DHT22;7779;49.596;11.070;2022-12-18T07:26:11;-7.70;66.10
15359;DHT22;7779;49.596;11.070;2022-12-18T07:28:39;-7.60;66.30
15359;DHT22;7779;49.596;11.070;2022-12-18T07:31:08;-7.40;66.50
15359;DHT22;7779;49.596;11.070;2022-12-18T07:33:36;-7.30;66.70
15359;DHT22;7779;49.596;11.070;2022-12-18T07:36:04;-7.20;66.70
15359;DHT22;7779;49.596;11.070;2022-12-18T07:38:32;-7.10;66.70
15359;DHT22;7779;49.596;11.070;2022-12-18T07:41:04;-7.00;66.80
15359;DHT22;7779;49.596;11.070;2022-12-18T07:43:33;-6.80;66.90
15359;DHT22;7779;49.596;11.070;2022-12-18T07:45:59;-6.70;66.90
15359;DHT22;7779;49.596;11.070;2022-12-18T07:48:25;-6.60;67.00
15359;DHT22;7779;49.596;11.070;2022-12-18T07:50:51;-6.50;67.00
15359;DHT22;7779;49.596;11.070;2022-12-18T07:53:17;-6.40;67.00
15359;DHT22;7779;49.596;11.070;2022-12-18T07:55:43;-6.30;67.10
15359;DHT22;7779;49.596;11.070;2022-12-18T07:58:09;-6.20;66.90
15359;DHT22;7779;49.596;11.070;2022-12-18T08:00:35;-6.10;67.20
15359;DHT22;7779;49.596;11.070;2022-12-18T08:03:01;-6.00;67.30
15359;DHT22;7779;49.596;11.070;2022-12-18T08:05:27;-5.90;67.40
15359;DHT22;7779;49.596;11.070;2022-12-18T08:07:54;-5.80;67.40
15359;DHT22;7779;49.596;11.070;2022-12-18T08:10:21;-5.70;67.40
15359;DHT22;7779;49.596;11.070;2022-12-18T08:12:51;-5.60;67.50
15359;DHT22;7779;49.596;11.070;2022-12-18T08:15:17;-5.50;67.50
15359;DHT22;7779;49.596;11.070;2022-12-18T08:17:43;-5.30;67.40
15359;DHT22;7779;49.596;11.070;2022-12-18T08:20:09;-5.30;67.60
15359;DHT22;7779;49.596;11.070;2022-12-18T08:22:35;-5.20;67.80
15359;DHT22;7779;49.596;11.070;2022-12-18T08:25:01;-5.00;67.80
15359;DHT22;7779;49.596;11.070;2022-12-18T08:27:28;-5.00;67.70
15359;DHT22;7779;49.596;11.070;2022-12-18T08:29:53;-4.90;67.80
15359;DHT22;7779;49.596;11.070;2022-12-18T08:32:19;-4.80;67.80
15359;DHT22;7779;49.596;11.070;2022-12-18T08:34:45;-4.70;67.90
15359;DHT22;7779;49.596;11.070;2022-12-18T08:37:11;-4.60;68.00
15359;DHT22;7779;49.596;11.070;2022-12-18T08:39:36;-4.50;68.00
15359;DHT22;7779;49.596;11.070;2022-12-18T08:42:02;-4.40;68.00
15359;DHT22;7779;49.596;11.070;2022-12-18T08:44:46;-4.30;68.00
15359;DHT22;7779;49.596;11.070;2022-12-18T08:47:12;-4.20;68.00
15359;DHT22;7779;49.596;11.070;2022-12-18T08:49:38;-4.10;68.10
15359;DHT22;7779;49.596;11.070;2022-12-18T08:52:03;-4.00;68.10
15359;DHT22;7779;49.596;11.070;2022-12-18T08:54:29;-3.90;68.10
15359;DHT22;7779;49.596;11.070;2022-12-18T08:56:55;-3.80;68.10
15359;DHT22;7779;49.596;11.070;2022-12-18T08:59:21;-3.70;68.20
15359;DHT22;7779;49.596;11.070;2022-12-18T09:01:48;-3.60;68.20
15359;DHT22;7779;49.596;11.070;2022-12-18T09:04:14;-3.60;68.10
15359;DHT22;7779;49.596;11.070;2022-12-18T09:06:40;-3.40;68.30
15359;DHT22;7779;49.596;11.070;2022-12-18T09:09:06;-3.40;67.60
15359;DHT22;7779;49.596;11.070;2022-12-18T09:11:33;-3.30;68.30
15359;DHT22;7779;49.596;11.070;2022-12-18T09:14:00;-3.20;68.30
15359;DHT22;7779;49.596;11.070;2022-12-18T09:16:27;-3.10;68.30
15359;DHT22;7779;49.596;11.070;2022-12-18T09:18:57;-3.00;68.30
15359;DHT22;7779;49.596;11.070;2022-12-18T09:21:26;-2.90;68.40
15359;DHT22;7779;49.596;11.070;2022-12-18T09:23:55;-2.80;68.40
15359;DHT22;7779;49.596;11.070;2022-12-18T09:26:22;-2.70;68.40
15359;DHT22;7779;49.596;11.070;2022-12-18T09:28:49;-2.60;68.40
15359;DHT22;7779;49.596;11.070;2022-12-18T09:31:17;-2.60;68.40
15359;DHT22;7779;49.596;11.070;2022-12-18T09:33:45;-2.50;68.30
15359;DHT22;7779;49.596;11.070;2022-12-18T09:36:13;-2.40;68.30
15359;DHT22;7779;49.596;11.070;2022-12-18T09:38:41;-2.30;68.30
15359;DHT22;7779;49.596;11.070;2022-12-18T09:44:25;-2.20;68.00
15359;DHT22;7779;49.596;11.070;2022-12-18T09:49:56;-2.00;67.90
15359;DHT22;7779;49.596;11.070;2022-12-18T09:52:37;-2.00;67.70
15359;DHT22;7779;49.596;11.070;2022-12-18T09:55:31;-1.90;67.50
15359;DHT22;7779;49.596;11.070;2022-12-18T10:00:42;-1.90;67.10
15359;DHT22;7779;49.596;11.070;2022-12-18T10:03:15;-1.90;66.90
15359;DHT22;7779;49.596;11.070;2022-12-18T10:11:27;-1.90;66.90
15359;DHT22;7779;49.596;11.070;2022-12-18T10:14:00;-1.90;67.00
15359;DHT22;7779;49.596;11.070;2022-12-18T10:19:17;-1.80;67.30
15359;DHT22;7779;49.596;11.070;2022-12-18T10:22:15;-1.80;67.40
15359;DHT22;7779;49.596;11.070;2022-12-18T10:25:12;-1.70;67.60
15359;DHT22;7779;49.596;11.070;2022-12-18T10:27:39;-1.70;67.90
15359;DHT22;7779;49.596;11.070;2022-12-18T10:30:14;-1.60;68.00
15359;DHT22;7779;49.596;11.070;2022-12-18T10:32:46;-1.50;67.40
15359;DHT22;7779;49.596;11.070;2022-12-18T10:35:20;-1.40;68.20
15359;DHT22;7779;49.596;11.070;2022-12-18T10:38:06;-1.40;68.00
15359;DHT22;7779;49.596;11.070;2022-12-18T10:40:57;-1.30;67.90
15359;DHT22;7779;49.596;11.070;2022-12-18T10:43:29;-1.20;68.00
15359;DHT22;7779;49.596;11.070;2022-12-18T10:46:14;-1.20;67.80
15359;DHT22;7779;49.596;11.070;2022-12-18T10:54:03;-1.00;67.50
15359;DHT22;7779;49.596;11.070;2022-12-18T10:56:35;-0.90;67.50
15359;DHT22;7779;49.596;11.070;2022-12-18T10:59:09;-0.90;67.50
15359;DHT22;7779;49.596;11.070;2022-12-18T11:01:51;-0.80;67.50
15359;DHT22;7779;49.596;11.070;2022-12-18T11:07:07;-0.70;67.40
15359;DHT22;7779;49.596;11.070;2022-12-18T11:09:35;-0.70;67.20
15359;DHT22;7779;49.596;11.070;2022-12-18T11:12:23;-0.70;67.20
15359;DHT22;7779;49.596;11.070;2022-12-18T11:14:51;-0.60;67.00
15359;DHT22;7779;49.596;11.070;2022-12-18T11:17:30;-0.60;67.20
15359;DHT22;7779;49.596;11.070;2022-12-18T11:20:06;-0.50;67.10
15359;DHT22;7779;49.596;11.070;2022-12-18T11:22:56;-0.50;67.00
15359;DHT22;7779;49.596;11.070;2022-12-18T11:25:24;-0.50;66.70
15359;DHT22;7779;49.596;11.070;2022-12-18T11:28:00;-0.50;66.90
15359;DHT22;7779;49.596;11.070;2022-12-18T11:30:29;-0.50;66.80
15359;DHT22;7779;49.596;11.070;2022-12-18T11:33:17;-0.40;66.90
15359;DHT22;7779;49.596;11.070;2022-12-18T11:35:55;-0.40;66.70
15359;DHT22;7779;49.596;11.070;2022-12-18T11:38:25;-0.40;66.80
15359;DHT22;7779;49.596;11.070;2022-12-18T11:43:40;-0.30;66.80
15359;DHT22;7779;49.596;11.070;2022-12-18T11:46:41;-0.30;66.80
15359;DHT22;7779;49.596;11.070;2022-12-18T11:49:19;-0.30;66.70
15359;DHT22;7779;49.596;11.070;2022-12-18T11:55:11;-0.20;66.70
15359;DHT22;7779;49.596;11.070;2022-12-18T11:58:02;-0.20;66.60
15359;DHT22;7779;49.596;11.070;2022-12-18T12:00:30;-0.20;66.70
15359;DHT22;7779;49.596;11.070;2022-12-18T12:11:44;-0.20;66.00
15359;DHT22;7779;49.596;11.070;2022-12-18T12:17:55;-0.20;65.90
15359;DHT22;7779;49.596;11.070;2022-12-18T12:26:33;-0.20;66.10
15359;DHT22;7779;49.596;11.070;2022-12-18T12:29:33;-0.20;65.40
15359;DHT22;7779;49.596;11.070;2022-12-18T12:35:21;-0.10;66.40
15359;DHT22;7779;49.596;11.070;2022-12-18T12:38:28;-0.10;66.70
15359;DHT22;7779;49.596;11.070;2022-12-18T12:41:06;-0.10;66.10
15359;DHT22;7779;49.596;11.070;2022-12-18T12:43:58;0.00;66.60
15359;DHT22;7779;49.596;11.070;2022-12-18T12:46:31;0.00;66.70
15359;DHT22;7779;49.596;11.070;2022-12-18T12:49:03;0.10;66.80
15359;DHT22;7779;49.596;11.070;2022-12-18T12:51:37;0.10;66.90
15359;DHT22;7779;49.596;11.070;2022-12-18T12:54:11;0.10;66.80
15359;DHT22;7779;49.596;11.070;2022-12-18T12:56:57;0.20;66.90
15359;DHT22;7779;49.596;11.070;2022-12-18T13:03:03;0.30;66.50
15359;DHT22;7779;49.596;11.070;2022-12-18T13:05:48;0.30;66.20
15359;DHT22;7779;49.596;11.070;2022-12-18T13:08:26;0.30;66.30
15359;DHT22;7779;49.596;11.070;2022-12-18T13:10:55;0.40;66.40
15359;DHT22;7779;49.596;11.070;2022-12-18T13:13:53;0.40;66.50
15359;DHT22;7779;49.596;11.070;2022-12-18T13:16:25;1.70;67.40
15359;DHT22;7779;49.596;11.070;2022-12-18T13:18:57;0.40;66.30
15359;DHT22;7779;49.596;11.070;2022-12-18T13:21:27;0.40;66.20
15359;DHT22;7779;49.596;11.070;2022-12-18T13:23:56;0.40;66.10
15359;DHT22;7779;49.596;11.070;2022-12-18T13:26:39;0.40;66.20
15359;DHT22;7779;49.596;11.070;2022-12-18T13:29:05;0.40;66.10
15359;DHT22;7779;49.596;11.070;2022-12-18T13:34:21;0.40;65.90
15359;DHT22;7779;49.596;11.070;2022-12-18T13:36:50;0.40;65.70
15359;DHT22;7779;49.596;11.070;2022-12-18T13:41:54;0.40;65.70
15359;DHT22;7779;49.596;11.070;2022-12-18T13:44:59;0.40;65.70
15359;DHT22;7779;49.596;11.070;2022-12-18T13:47:32;0.40;65.60
15359;DHT22;7779;49.596;11.070;2022-12-18T13:50:02;0.40;65.60
15359;DHT22;7779;49.596;11.070;2022-12-18T13:52:37;0.40;65.60
15359;DHT22;7779;49.596;11.070;2022-12-18T13:55:07;0.30;65.40
15359;DHT22;7779;49.596;11.070;2022-12-18T13:57:41;0.30;65.50
15359;DHT22;7779;49.596;11.070;2022-12-18T14:00:23;0.30;65.40
15359;DHT22;7779;49.596;11.070;2022-12-18T14:02:50;0.20;65.20
15359;DHT22;7779;49.596;11.070;2022-12-18T14:07:53;0.20;65.30
15359;DHT22;7779;49.596;11.070;2022-12-18T14:10:21;0.10;65.30
15359;DHT22;7779;49.596;11.070;2022-12-18T14:12:49;0.10;65.30
15359;DHT22;7779;49.596;11.070;2022-12-18T14:18:02;0.00;65.30
15359;DHT22;7779;49.596;11.070;2022-12-18T14:20:43;0.00;65.20
15359;DHT22;7779;49.596;11.070;2022-12-18T14:25:53;-0.10;65.10
15359;DHT22;7779;49.596;11.070;2022-12-18T14:28:19;-0.10;65.30
15359;DHT22;7779;49.596;11.070;2022-12-18T14:30:47;-0.10;65.30
15359;DHT22;7779;49.596;11.070;2022-12-18T14:33:14;-0.20;65.20
15359;DHT22;7779;49.596;11.070;2022-12-18T14:36:00;-0.20;65.20
15359;DHT22;7779;49.596;11.070;2022-12-18T14:38:40;-0.20;65.20
15359;DHT22;7779;49.596;11.070;2022-12-18T14:41:11;-0.30;65.10
15359;DHT22;7779;49.596;11.070;2022-12-18T14:43:41;-0.30;65.20
15359;DHT22;7779;49.596;11.070;2022-12-18T14:49:03;-0.40;65.10
15359;DHT22;7779;49.596;11.070;2022-12-18T14:51:48;-0.40;65.30
15359;DHT22;7779;49.596;11.070;2022-12-18T14:54:19;-0.50;65.20
15359;DHT22;7779;49.596;11.070;2022-12-18T14:56:48;-0.50;65.10
15359;DHT22;7779;49.596;11.070;2022-12-18T14:59:35;-0.60;65.00
15359;DHT22;7779;49.596;11.070;2022-12-18T15:04:48;-0.70;64.80
15359;DHT22;7779;49.596;11.070;2022-12-18T15:07:25;-0.70;64.80
15359;DHT22;7779;49.596;11.070;2022-12-18T15:12:49;-0.80;64.70
15359;DHT22;7779;49.596;11.070;2022-12-18T15:20:41;-1.10;64.70
15359;DHT22;7779;49.596;11.070;2022-12-18T15:23:16;-1.10;64.70
15359;DHT22;7779;49.596;11.070;2022-12-18T15:25:46;-1.20;64.70
15359;DHT22;7779;49.596;11.070;2022-12-18T15:28:21;-1.30;64.00
15359;DHT22;7779;49.596;11.070;2022-12-18T15:34:05;-1.30;64.80
15359;DHT22;7779;49.596;11.070;2022-12-18T15:36:37;-1.40;64.80
15359;DHT22;7779;49.596;11.070;2022-12-18T15:39:04;-1.50;64.20
15359;DHT22;7779;49.596;11.070;2022-12-18T15:41:32;-1.50;64.80
15359;DHT22;7779;49.596;11.070;2022-12-18T15:43:59;-1.50;64.90
15359;DHT22;7779;49.596;11.070;2022-12-18T15:46:25;-1.60;64.90
15359;DHT22;7779;49.596;11.070;2022-12-18T15:48:54;-1.60;64.90
15359;DHT22;7779;49.596;11.070;2022-12-18T15:51:28;-1.70;64.90
15359;DHT22;7779;49.596;11.070;2022-12-18T15:53:59;-1.70;65.00
15359;DHT22;7779;49.596;11.070;2022-12-18T15:56:29;-1.70;65.10
15359;DHT22;7779;49.596;11.070;2022-12-18T15:59:19;-1.80;65.20
15359;DHT22;7779;49.596;11.070;2022-12-18T16:01:48;-1.80;65.20
15359;DHT22;7779;49.596;11.070;2022-12-18T16:04:18;-1.80;65.30
15359;DHT22;7779;49.596;11.070;2022-12-18T16:06:46;-1.90;65.20
15359;DHT22;7779;49.596;11.070;2022-12-18T16:09:12;-1.90;65.30
15359;DHT22;7779;49.596;11.070;2022-12-18T16:11:39;-1.90;65.30
15359;DHT22;7779;49.596;11.070;2022-12-18T16:14:19;-1.90;65.30
15359;DHT22;7779;49.596;11.070;2022-12-18T16:16:53;-2.00;65.20
15359;DHT22;7779;49.596;11.070;2022-12-18T16:19:23;-2.00;65.20
15359;DHT22;7779;49.596;11.070;2022-12-18T16:21:51;-2.00;65.20
15359;DHT22;7779;49.596;11.070;2022-12-18T16:24:25;-2.10;65.20
15359;DHT22;7779;49.596;11.070;2022-12-18T16:26:52;-2.10;65.20
15359;DHT22;7779;49.596;11.070;2022-12-18T16:29:20;-2.10;65.30
15359;DHT22;7779;49.596;11.070;2022-12-18T16:31:50;-2.10;65.20
15359;DHT22;7779;49.596;11.070;2022-12-18T16:36:55;-2.20;65.20
15359;DHT22;7779;49.596;11.070;2022-12-18T16:39:23;-2.20;65.30
15359;DHT22;7779;49.596;11.070;2022-12-18T16:41:49;-2.30;65.20
15359;DHT22;7779;49.596;11.070;2022-12-18T16:44:16;-2.30;65.30
15359;DHT22;7779;49.596;11.070;2022-12-18T16:46:43;-2.30;65.40
15359;DHT22;7779;49.596;11.070;2022-12-18T16:49:12;-2.40;64.80
15359;DHT22;7779;49.596;11.070;2022-12-18T16:51:38;-2.40;65.40
15359;DHT22;7779;49.596;11.070;2022-12-18T16:54:04;-2.40;65.40
15359;DHT22;7779;49.596;11.070;2022-12-18T16:56:30;-2.40;65.50
15359;DHT22;7779;49.596;11.070;2022-12-18T16:58:58;-2.40;65.50
15359;DHT22;7779;49.596;11.070;2022-12-18T17:01:26;-2.50;65.40
15359;DHT22;7779;49.596;11.070;2022-12-18T17:04:04;-2.50;65.50
15359;DHT22;7779;49.596;11.070;2022-12-18T17:06:33;-2.50;65.60
15359;DHT22;7779;49.596;11.070;2022-12-18T17:09:05;-2.50;65.60
15359;DHT22;7779;49.596;11.070;2022-12-18T17:11:34;-2.60;65.60
15359;DHT22;7779;49.596;11.070;2022-12-18T17:14:15;-2.60;65.60
15359;DHT22;7779;49.596;11.070;2022-12-18T17:16:42;-2.60;65.70
15359;DHT22;7779;49.596;11.070;2022-12-18T17:19:09;-2.60;65.80
15359;DHT22;7779;49.596;11.070;2022-12-18T17:21:35;-2.60;65.90
15359;DHT22;7779;49.596;11.070;2022-12-18T17:24:02;-2.60;65.90
15359;DHT22;7779;49.596;11.070;2022-12-18T17:26:28;-2.60;66.00
15359;DHT22;7779;49.596;11.070;2022-12-18T17:28:58;-2.60;66.70
15359;DHT22;7779;49.596;11.070;2022-12-18T17:31:27;-2.60;66.10
15359;DHT22;7779;49.596;11.070;2022-12-18T17:33:54;-2.60;66.10
15359;DHT22;7779;49.596;11.070;2022-12-18T17:36:20;-2.60;66.10
15359;DHT22;7779;49.596;11.070;2022-12-18T17:38:58;-2.60;66.10